createdAt,value
2022-12-18T00:00:56.452Z,0.00
2022-12-18T00:01:56.497Z,0.00
2022-12-18T00:02:56.561Z,0.00
2022-12-18T00:03:57.635Z,0.00
2022-12-18T00:04:56.419Z,0.00
2022-12-18T00:05:56.384Z,0.00
2022-12-18T00:06:56.368Z,0.00
2022-12-18T00:07:56.363Z,0.00
2022-12-18T00:08:56.362Z,0.00
2022-12-18T00:09:56.382Z,0.00
2022-12-18T00:11:00.438Z,0.00
2022-12-18T00:11:56.334Z,0.00
2022-12-18T00:12:56.327Z,0.00
2022-12-18T00:13:56.296Z,0.00
2022-12-18T00:14:56.319Z,0.00
2022-12-18T00:15:56.712Z,0.00
2022-12-18T00:16:56.274Z,0.00
2022-12-18T00:17:56.267Z,0.00
2022-12-18T00:18:56.252Z,0.00
2022-12-18T00:19:56.258Z,0.00
2022-12-18T00:20:56.226Z,0.00
2022-12-18T00:21:56.218Z,0.00
2022-12-18T00:22:56.195Z,0.00
2022-12-18T00:23:56.185Z,0.00
2022-12-18T00:25:26.036Z,0.00
2022-12-18T00:25:56.163Z,0.00
2022-12-18T00:26:56.170Z,0.00
2022-12-18T00:27:56.155Z,0.00
2022-12-18T00:28:56.138Z,0.00
2022-12-18T00:29:56.153Z,0.00
2022-12-18T00:30:56.114Z,0.00
2022-12-18T00:31:56.151Z,0.00
2022-12-18T00:32:56.104Z,0.00
2022-12-18T00:33:56.089Z,0.00
2022-12-18T00:34:56.060Z,0.00
2022-12-18T00:35:56.083Z,0.00
2022-12-18T00:36:56.040Z,0.00
2022-12-18T00:37:56.044Z,0.00
2022-12-18T00:38:56.016Z,0.00
2022-12-18T00:39:56.022Z,0.00
2022-12-18T00:40:56.009Z,0.00
2022-12-18T00:41:56.023Z,0.00
2022-12-18T00:42:56.005Z,0.00
2022-12-18T00:43:55.981Z,0.00
2022-12-18T00:44:55.949Z,0.00
2022-12-18T00:45:56.020Z,0.00
2022-12-18T00:46:55.940Z,0.00
2022-12-18T00:47:55.933Z,0.00
2022-12-18T00:48:55.924Z,0.00
2022-12-18T00:49:55.899Z,0.00
2022-12-18T00:50:55.897Z,0.00
2022-12-18T00:51:55.875Z,0.00
2022-12-18T00:52:55.867Z,0.00
2022-12-18T00:53:55.884Z,0.00
2022-12-18T00:54:58.786Z,0.00
2022-12-18T00:55:55.833Z,0.00
2022-12-18T00:56:55.829Z,0.00
2022-12-18T00:57:55.810Z,0.00
2022-12-18T00:58:55.817Z,0.00
2022-12-18T00:59:55.816Z,0.00
2022-12-18T01:00:55.869Z,0.00
2022-12-18T01:01:55.899Z,0.00
2022-12-18T01:02:55.897Z,0.00
2022-12-18T01:03:55.757Z,0.00
2022-12-18T01:04:55.764Z,0.00
2022-12-18T01:05:55.730Z,0.00
2022-12-18T01:06:55.721Z,0.00
2022-12-18T01:07:55.719Z,0.00
2022-12-18T01:08:55.696Z,0.00
2022-12-18T01:09:55.688Z,0.00
2022-12-18T01:10:55.679Z,0.00
2022-12-18T01:11:55.655Z,0.00
2022-12-18T01:12:55.639Z,0.00
2022-12-18T01:13:55.642Z,0.00
2022-12-18T01:14:55.650Z,0.00
2022-12-18T01:15:55.624Z,0.00
2022-12-18T01:16:55.675Z,0.00
2022-12-18T01:17:55.602Z,0.00
2022-12-18T01:18:55.611Z,0.00
2022-12-18T01:19:55.591Z,0.00
2022-12-18T01:20:56.558Z,0.00
2022-12-18T07:48:32.126Z,356.00
2022-12-18T07:49:06.657Z,372.00
2022-12-18T07:50:06.656Z,384.00
2022-12-18T07:51:06.636Z,404.00
2022-12-18T07:52:06.612Z,440.00
2022-12-18T07:53:06.602Z,476.00
2022-12-18T07:54:06.594Z,508.00
2022-12-18T07:55:06.622Z,524.00
2022-12-18T07:57:16.520Z,552.00
2022-12-18T07:58:07.538Z,552.00
2022-12-18T07:59:06.527Z,560.00
2022-12-18T08:00:06.532Z,580.00
2022-12-18T08:01:06.559Z,604.00
2022-12-18T08:02:06.704Z,620.00
2022-12-18T08:03:06.534Z,648.00
2022-12-18T08:04:06.598Z,672.00
2022-12-18T08:05:06.479Z,696.00
2022-12-18T08:06:06.470Z,712.00
2022-12-18T08:07:06.439Z,732.00
2022-12-18T08:08:06.429Z,752.00
2022-12-18T08:09:06.412Z,764.00
2022-12-18T08:10:06.422Z,780.00
2022-12-18T08:11:06.402Z,800.00
2022-12-18T08:12:06.399Z,816.00
2022-12-18T08:13:06.381Z,828.00
2022-12-18T08:14:06.475Z,840.00
2022-12-18T08:15:06.374Z,868.00
2022-12-18T08:16:06.344Z,900.00
2022-12-18T08:17:06.346Z,932.00
2022-12-18T08:18:10.129Z,964.00
2022-12-18T08:19:07.318Z,984.00
2022-12-18T08:20:06.421Z,996.00
2022-12-18T08:21:06.299Z,1020.00
2022-12-18T08:22:06.277Z,1024.00
2022-12-18T08:23:06.262Z,1048.00
2022-12-18T08:24:06.255Z,1080.00
2022-12-18T08:25:06.263Z,1104.00
2022-12-18T08:26:06.245Z,1124.00
2022-12-18T08:27:28.340Z,1148.00
2022-12-18T08:28:07.242Z,1176.00
2022-12-18T08:29:06.208Z,1188.00
2022-12-18T08:30:07.206Z,1196.00
2022-12-18T08:31:06.209Z,1220.00
2022-12-18T08:32:06.211Z,1228.00
2022-12-18T08:33:06.150Z,1212.00
2022-12-18T08:34:06.161Z,1204.00
2022-12-18T08:35:06.159Z,1204.00
2022-12-18T08:36:06.252Z,1228.00
2022-12-18T08:37:06.124Z,1248.00
2022-12-18T08:38:06.152Z,1280.00
2022-12-18T08:39:06.104Z,1316.00
2022-12-18T08:40:06.107Z,1320.00
2022-12-18T08:41:07.084Z,1312.00
2022-12-18T08:42:10.122Z,1332.00
2022-12-18T08:43:06.058Z,1328.00
2022-12-18T08:44:06.168Z,1340.00
2022-12-18T08:45:06.050Z,1348.00
2022-12-18T08:46:06.126Z,1372.00
2022-12-18T08:47:06.001Z,1416.00
2022-12-18T08:48:05.999Z,1468.00
2022-12-18T08:49:05.999Z,1504.00
2022-12-18T08:50:05.976Z,1528.00
2022-12-18T08:51:05.971Z,1560.00
2022-12-18T08:52:06.078Z,1576.00
2022-12-18T08:53:05.935Z,1600.00
2022-12-18T08:54:06.460Z,1588.00
2022-12-18T08:55:05.939Z,1604.00
2022-12-18T08:56:05.916Z,1636.00
2022-12-18T08:57:05.889Z,1688.00
2022-12-18T08:58:05.874Z,1736.00
2022-12-18T08:59:05.870Z,1780.00
2022-12-18T09:00:05.877Z,1784.00
2022-12-18T09:01:05.882Z,1852.00
2022-12-18T09:02:06.095Z,1900.00
2022-12-18T09:03:05.888Z,1940.00
2022-12-18T09:04:05.811Z,1984.00
2022-12-18T09:05:05.824Z,2000.00
2022-12-18T09:06:05.787Z,2012.00
2022-12-18T09:07:24.976Z,2040.00
2022-12-18T09:08:05.777Z,2048.00
2022-12-18T09:09:05.764Z,2032.00
2022-12-18T09:10:05.758Z,2004.00
2022-12-18T09:11:05.752Z,1992.00
2022-12-18T09:12:05.734Z,1980.00
2022-12-18T09:13:05.728Z,1976.00
2022-12-18T09:14:05.720Z,1996.00
2022-12-18T09:15:05.725Z,1996.00
2022-12-18T09:16:05.678Z,1996.00
2022-12-18T09:17:06.818Z,1956.00
2022-12-18T09:18:05.670Z,1940.00
2022-12-18T09:19:05.670Z,1920.00
2022-12-18T09:20:05.650Z,1892.00
2022-12-18T09:21:05.629Z,1844.00
2022-12-18T09:22:05.630Z,1784.00
2022-12-18T09:23:05.729Z,1736.00
2022-12-18T09:24:08.627Z,1728.00
2022-12-18T09:25:05.610Z,1748.00
2022-12-18T09:26:05.567Z,1808.00
2022-12-18T09:27:05.574Z,1924.00
2022-12-18T09:28:05.557Z,2112.00
2022-12-18T09:29:05.557Z,2220.00
2022-12-18T09:30:05.552Z,2280.00
2022-12-18T09:31:05.592Z,2296.00
2022-12-18T09:32:05.515Z,2344.00
2022-12-18T09:33:05.499Z,2356.00
2022-12-18T09:34:05.485Z,2384.00
2022-12-18T09:35:05.504Z,2436.00
2022-12-18T09:36:05.473Z,2484.00
2022-12-18T09:37:05.482Z,2524.00
2022-12-18T09:38:06.444Z,2600.00
2022-12-18T09:39:08.566Z,2628.00
2022-12-18T09:40:05.445Z,2616.00
2022-12-18T09:41:06.424Z,2636.00
2022-12-18T09:42:08.139Z,2604.00
2022-12-18T09:43:05.386Z,2496.00
2022-12-18T09:44:05.383Z,2500.00
2022-12-18T09:45:05.473Z,2552.00
2022-12-18T09:46:05.427Z,2560.00
2022-12-18T09:47:05.357Z,2632.00
2022-12-18T09:48:05.342Z,2668.00
2022-12-18T09:49:05.322Z,2680.00
2022-12-18T09:50:17.076Z,2784.00
2022-12-18T09:51:06.294Z,2844.00
2022-12-18T09:52:05.281Z,2876.00
2022-12-18T09:53:05.287Z,2904.00
2022-12-18T09:54:05.274Z,2968.00
2022-12-18T09:55:05.398Z,3004.00
2022-12-18T09:56:05.234Z,3044.00
2022-12-18T09:57:05.230Z,3084.00
2022-12-18T09:58:05.225Z,3116.00
2022-12-18T09:59:05.220Z,3116.00
2022-12-18T10:00:05.213Z,3104.00
2022-12-18T10:01:08.845Z,3128.00
2022-12-18T10:02:05.297Z,3144.00
2022-12-18T10:03:05.377Z,3196.00
2022-12-18T10:04:05.193Z,3320.00
2022-12-18T10:05:05.164Z,3484.00
2022-12-18T10:06:05.139Z,3748.00
2022-12-18T10:07:09.124Z,3720.00
2022-12-18T10:08:05.113Z,3772.00
2022-12-18T10:09:18.579Z,3920.00
2022-12-18T10:10:06.113Z,3892.00
2022-12-18T10:11:05.199Z,3912.00
2022-12-18T10:12:05.054Z,3832.00
2022-12-18T10:13:05.173Z,3744.00
2022-12-18T10:14:05.046Z,3864.00
2022-12-18T10:15:05.062Z,3868.00
2022-12-18T10:16:05.091Z,3852.00
2022-12-18T10:17:05.005Z,3956.00
2022-12-18T10:18:04.988Z,4056.00
2022-12-18T10:19:04.979Z,4092.00
2022-12-18T10:20:04.992Z,4192.00
2022-12-18T10:21:04.971Z,4268.00
2022-12-18T10:22:04.949Z,4416.00
2022-12-18T10:23:05.936Z,4188.00
2022-12-18T10:24:04.921Z,4208.00
2022-12-18T10:25:04.967Z,4296.00
2022-12-18T10:26:05.647Z,4396.00
2022-12-18T10:27:05.011Z,4304.00
2022-12-18T10:28:04.874Z,4220.00
2022-12-18T10:29:05.827Z,4476.00
2022-12-18T10:30:04.878Z,4748.00
2022-12-18T10:31:04.912Z,4708.00
2022-12-18T10:32:04.844Z,4464.00
2022-12-18T10:33:04.839Z,4288.00
2022-12-18T10:34:04.809Z,4656.00
2022-12-18T10:35:04.815Z,4800.00
2022-12-18T10:36:04.785Z,4716.00
2022-12-18T10:37:04.780Z,4788.00
2022-12-18T10:38:14.222Z,4704.00
2022-12-18T10:39:04.770Z,4564.00
2022-12-18T10:40:04.767Z,5000.00
2022-12-18T10:41:04.750Z,5212.00
2022-12-18T10:42:04.733Z,4964.00
2022-12-18T10:43:04.834Z,5060.00
2022-12-18T10:44:04.696Z,5004.00
2022-12-18T10:45:04.706Z,4672.00
2022-12-18T10:46:04.712Z,4692.00
2022-12-18T10:47:10.084Z,4464.00
2022-12-18T10:48:05.653Z,4340.00
2022-12-18T10:49:04.645Z,4388.00
2022-12-18T10:50:04.644Z,4420.00
2022-12-18T10:51:13.057Z,4440.00
2022-12-18T10:52:05.605Z,4328.00
2022-12-18T10:53:04.599Z,4236.00
2022-12-18T10:54:04.597Z,4404.00
2022-12-18T10:55:04.607Z,4164.00
2022-12-18T10:56:04.563Z,4264.00
2022-12-18T10:57:14.751Z,4332.00
2022-12-18T10:58:04.560Z,4224.00
2022-12-18T10:59:04.651Z,4120.00
2022-12-18T11:00:04.528Z,3984.00
2022-12-18T11:01:04.512Z,3944.00
2022-12-18T11:02:04.596Z,4072.00
2022-12-18T11:03:04.637Z,4072.00
2022-12-18T11:04:04.548Z,4128.00
2022-12-18T11:05:04.478Z,4092.00
2022-12-18T11:06:04.469Z,4212.00
2022-12-18T11:07:04.442Z,4268.00
2022-12-18T11:08:04.444Z,4152.00
2022-12-18T11:09:07.991Z,4148.00
2022-12-18T11:10:05.423Z,4072.00
2022-12-18T11:11:04.412Z,4100.00
2022-12-18T11:12:04.402Z,4020.00
2022-12-18T11:13:04.377Z,4172.00
2022-12-18T11:14:04.376Z,3964.00
2022-12-18T11:15:04.506Z,3988.00
2022-12-18T11:16:04.467Z,4036.00
2022-12-18T11:18:05.317Z,4040.00
2022-12-18T11:19:04.325Z,3928.00
2022-12-18T11:20:04.364Z,3884.00
2022-12-18T11:21:04.298Z,3852.00
2022-12-18T11:22:04.269Z,3712.00
2022-12-18T11:23:04.281Z,3660.00
2022-12-18T11:24:04.262Z,3600.00
2022-12-18T11:26:05.237Z,3492.00
2022-12-18T11:27:04.441Z,3492.00
2022-12-18T11:28:04.224Z,3468.00
2022-12-18T11:29:04.206Z,3460.00
2022-12-18T11:30:14.383Z,3420.00
2022-12-18T11:31:04.251Z,3432.00
2022-12-18T11:32:04.157Z,3420.00
2022-12-18T11:33:04.163Z,3492.00
2022-12-18T11:34:28.153Z,3536.00
2022-12-18T11:35:05.161Z,3492.00
2022-12-18T11:36:04.123Z,3564.00
2022-12-18T11:37:04.129Z,3456.00
2022-12-18T11:38:04.129Z,3392.00
2022-12-18T11:39:04.097Z,3420.00
2022-12-18T11:40:04.098Z,3472.00
2022-12-18T11:41:04.072Z,3456.00
2022-12-18T11:42:04.057Z,3388.00
2022-12-18T11:43:04.049Z,3328.00
2022-12-18T11:44:04.022Z,3356.00
2022-12-18T11:45:04.050Z,3236.00
2022-12-18T11:46:04.219Z,3252.00
2022-12-18T11:47:04.060Z,3268.00
2022-12-18T11:48:04.001Z,3256.00
2022-12-18T11:49:03.977Z,3208.00
2022-12-18T11:50:03.979Z,3132.00
2022-12-18T11:51:04.005Z,3068.00
2022-12-18T11:52:03.941Z,3004.00
2022-12-18T11:53:06.110Z,2920.00
2022-12-18T11:54:03.909Z,2888.00
2022-12-18T11:55:03.905Z,2848.00
2022-12-18T11:56:03.903Z,2800.00
2022-12-18T11:57:03.912Z,2732.00
2022-12-18T11:58:03.892Z,2676.00
2022-12-18T11:59:03.874Z,2664.00
2022-12-18T12:00:04.841Z,2616.00
2022-12-18T12:01:03.836Z,2596.00
2022-12-18T12:02:04.098Z,2568.00
2022-12-18T12:03:03.996Z,2556.00
2022-12-18T12:04:03.935Z,2564.00
2022-12-18T12:05:03.803Z,2528.00
2022-12-18T12:06:03.783Z,2540.00
2022-12-18T12:07:03.798Z,2492.00
2022-12-18T12:08:03.760Z,2484.00
2022-12-18T12:09:03.778Z,2444.00
2022-12-18T12:10:03.746Z,2416.00
2022-12-18T12:11:03.739Z,2392.00
2022-12-18T12:12:03.710Z,2372.00
2022-12-18T12:13:03.718Z,2396.00
2022-12-18T12:14:03.704Z,2404.00
2022-12-18T12:15:04.709Z,2404.00
2022-12-18T12:16:03.763Z,2404.00
2022-12-18T12:17:03.675Z,2376.00
2022-12-18T12:18:08.213Z,2384.00
2022-12-18T12:19:04.648Z,2364.00
2022-12-18T12:20:03.648Z,2368.00
2022-12-18T12:21:19.775Z,2372.00
2022-12-18T12:22:03.597Z,2344.00
2022-12-18T12:23:03.594Z,2340.00
2022-12-18T12:24:03.585Z,2284.00
2022-12-18T12:25:03.571Z,2264.00
2022-12-18T12:26:03.574Z,2220.00
2022-12-18T12:27:03.577Z,2192.00
2022-12-18T12:28:03.534Z,2184.00
2022-12-18T12:29:03.532Z,2164.00
2022-12-18T12:30:03.524Z,2120.00
2022-12-18T12:31:03.516Z,2120.00
2022-12-18T12:32:03.575Z,2100.00
2022-12-18T12:33:03.551Z,2100.00
2022-12-18T12:34:03.590Z,2104.00
2022-12-18T12:35:09.261Z,2108.00
2022-12-18T12:36:04.451Z,2104.00
2022-12-18T12:37:03.448Z,2100.00
2022-12-18T12:38:03.434Z,2104.00
2022-12-18T12:39:04.443Z,2124.00
2022-12-18T12:40:15.317Z,2108.00
2022-12-18T12:41:04.501Z,2120.00
2022-12-18T12:42:03.393Z,2108.00
2022-12-18T12:43:03.380Z,2108.00
2022-12-18T12:44:03.380Z,2084.00
2022-12-18T12:45:03.342Z,2068.00
2022-12-18T12:46:14.345Z,2040.00
2022-12-18T12:47:03.320Z,2000.00
2022-12-18T12:48:03.319Z,1992.00
2022-12-18T12:49:09.041Z,1968.00
2022-12-18T12:50:03.290Z,1964.00
2022-12-18T12:51:03.278Z,1960.00
2022-12-18T12:52:03.276Z,1956.00
2022-12-18T12:53:03.269Z,1936.00
2022-12-18T12:54:03.269Z,1932.00
2022-12-18T12:55:03.232Z,1920.00
2022-12-18T12:56:03.238Z,1912.00
2022-12-18T12:57:03.225Z,1908.00
2022-12-18T12:58:03.194Z,1904.00
2022-12-18T12:59:03.219Z,1896.00
2022-12-18T13:00:04.192Z,1912.00
2022-12-18T13:01:03.240Z,1924.00
2022-12-18T13:02:03.358Z,1904.00
2022-12-18T13:03:03.150Z,1896.00
2022-12-18T13:04:03.144Z,1896.00
2022-12-18T13:05:03.233Z,1900.00
2022-12-18T13:06:03.111Z,1912.00
2022-12-18T13:07:03.110Z,1956.00
2022-12-18T13:08:03.100Z,1956.00
2022-12-18T13:09:03.104Z,1964.00
2022-12-18T13:10:03.098Z,1968.00
2022-12-18T13:11:04.068Z,1948.00
2022-12-18T13:12:03.052Z,1920.00
2022-12-18T13:13:03.031Z,1904.00
2022-12-18T13:14:03.049Z,1880.00
2022-12-18T13:15:05.528Z,1864.00
2022-12-18T13:16:03.996Z,1836.00
2022-12-18T13:17:02.997Z,1816.00
2022-12-18T13:18:02.972Z,1804.00
2022-12-18T13:19:02.989Z,1788.00
2022-12-18T13:20:02.952Z,1772.00
2022-12-18T13:21:04.151Z,1748.00
2022-12-18T13:22:02.929Z,1724.00
2022-12-18T13:23:02.927Z,1692.00
2022-12-18T13:24:02.907Z,1664.00
2022-12-18T13:25:02.936Z,1652.00
2022-12-18T13:26:02.886Z,1624.00
2022-12-18T13:27:02.885Z,1612.00
2022-12-18T13:28:02.861Z,1604.00
2022-12-18T13:29:02.861Z,1592.00
2022-12-18T13:30:02.844Z,1584.00
2022-12-18T13:31:02.872Z,1572.00
2022-12-18T13:32:02.836Z,1556.00
2022-12-18T13:33:02.801Z,1568.00
2022-12-18T13:34:25.148Z,1548.00
2022-12-18T13:35:03.779Z,1540.00
2022-12-18T13:36:05.026Z,1524.00
2022-12-18T13:37:02.905Z,1496.00
2022-12-18T13:38:02.752Z,1468.00
2022-12-18T13:39:02.734Z,1444.00
2022-12-18T13:40:02.758Z,1432.00
2022-12-18T13:41:02.714Z,1412.00
2022-12-18T13:42:02.718Z,1396.00
2022-12-18T13:43:02.753Z,1376.00
2022-12-18T13:44:02.698Z,1364.00
2022-12-18T13:45:02.679Z,1352.00
2022-12-18T13:46:02.661Z,1320.00
2022-12-18T13:47:02.650Z,1304.00
2022-12-18T13:48:02.640Z,1288.00
2022-12-18T13:49:02.658Z,1264.00
2022-12-18T13:50:02.627Z,1244.00
2022-12-18T13:51:02.625Z,1216.00
2022-12-18T13:52:02.595Z,1204.00
2022-12-18T13:53:02.706Z,1176.00
2022-12-18T13:54:02.572Z,1184.00
2022-12-18T13:55:02.586Z,1168.00
2022-12-18T13:56:02.546Z,1156.00
2022-12-18T13:57:02.535Z,1136.00
2022-12-18T13:58:02.529Z,1132.00
2022-12-18T13:59:02.514Z,1116.00
2022-12-18T14:00:02.533Z,1108.00
2022-12-18T14:01:02.527Z,1096.00
2022-12-18T14:02:02.955Z,1080.00
2022-12-18T14:03:02.638Z,1072.00
2022-12-18T14:04:02.464Z,1068.00
2022-12-18T14:05:02.485Z,1060.00
2022-12-18T14:06:02.452Z,1048.00
2022-12-18T14:07:02.425Z,1036.00
2022-12-18T14:08:02.429Z,1004.00
2022-12-18T14:09:02.521Z,988.00
2022-12-18T14:10:18.881Z,968.00
2022-12-18T14:11:03.395Z,940.00
2022-12-18T14:12:02.390Z,916.00
2022-12-18T14:13:03.181Z,900.00
2022-12-18T14:14:02.347Z,880.00
2022-12-18T14:15:02.330Z,864.00
2022-12-18T14:16:03.954Z,848.00
2022-12-18T14:17:02.368Z,836.00
2022-12-18T14:18:02.316Z,820.00
2022-12-18T14:19:06.823Z,796.00
2022-12-18T14:20:03.294Z,780.00
2022-12-18T14:21:03.267Z,760.00
2022-12-18T14:22:02.282Z,740.00
2022-12-18T14:23:02.269Z,724.00
2022-12-18T14:24:02.248Z,700.00
2022-12-18T14:25:02.345Z,680.00
2022-12-18T14:26:05.950Z,656.00
2022-12-18T14:27:02.202Z,632.00
2022-12-18T14:28:02.200Z,608.00
2022-12-18T14:29:02.286Z,588.00
2022-12-18T14:30:02.167Z,568.00
2022-12-18T14:31:02.186Z,552.00
2022-12-18T14:32:02.158Z,536.00
2022-12-18T14:33:02.142Z,528.00
2022-12-18T14:34:02.121Z,512.00
2022-12-18T14:35:02.124Z,492.00
2022-12-18T14:36:02.100Z,480.00
2022-12-18T14:37:02.096Z,464.00
2022-12-18T14:38:02.086Z,460.00
2022-12-18T14:39:02.076Z,456.00
2022-12-18T14:40:08.713Z,452.00
2022-12-18T14:41:03.166Z,448.00
2022-12-18T14:42:02.036Z,436.00
2022-12-18T14:43:02.018Z,428.00
2022-12-18T14:44:02.026Z,416.00
2022-12-18T14:45:17.434Z,404.00
2022-12-18T14:46:03.031Z,388.00
2022-12-18T14:47:01.973Z,372.00
2022-12-18T14:48:02.025Z,360.00
2022-12-18T14:49:02.950Z,352.00
2022-12-18T14:50:01.951Z,340.00
2022-12-18T14:51:01.949Z,324.00
2022-12-18T14:52:01.958Z,304.00
2022-12-18T14:53:01.918Z,284.00
2022-12-18T14:54:01.901Z,272.00
2022-12-18T14:55:01.900Z,260.00
2022-12-18T14:56:01.897Z,252.00
2022-12-18T14:57:02.052Z,236.00
2022-12-18T14:58:01.867Z,220.00
2022-12-18T14:59:02.848Z,212.00
2022-12-18T15:00:01.846Z,196.00
2022-12-18T15:01:01.914Z,184.00
2022-12-18T15:02:01.982Z,176.00
2022-12-18T15:03:02.017Z,164.00
2022-12-18T15:04:01.801Z,152.00
2022-12-18T15:05:01.790Z,148.00
2022-12-18T15:06:01.768Z,136.00
2022-12-18T15:07:01.771Z,132.00
2022-12-18T15:08:01.756Z,124.00
2022-12-18T15:09:01.747Z,120.00
2022-12-18T15:10:01.751Z,112.00
2022-12-18T15:11:14.793Z,104.00
2022-12-18T15:12:01.700Z,100.00
2022-12-18T15:13:01.801Z,96.00
2022-12-18T15:14:01.700Z,88.00
2022-12-18T15:15:01.693Z,88.00
2022-12-18T15:16:01.706Z,76.00
2022-12-18T15:17:01.647Z,76.00
2022-12-18T15:18:01.644Z,68.00
2022-12-18T15:19:01.621Z,64.00
2022-12-18T15:20:01.624Z,60.00
2022-12-18T15:21:01.620Z,56.00
2022-12-18T15:22:06.336Z,52.00
2022-12-18T15:23:02.583Z,44.00
2022-12-18T15:24:01.581Z,44.00
2022-12-18T15:25:01.571Z,40.00
2022-12-18T15:26:01.550Z,36.00
2022-12-18T15:27:01.584Z,36.00
2022-12-18T15:28:01.520Z,36.00
2022-12-18T15:29:01.622Z,32.00
2022-12-18T15:30:01.530Z,28.00
2022-12-18T15:31:01.574Z,28.00
2022-12-18T15:32:01.488Z,24.00
2022-12-18T15:33:01.489Z,20.00
2022-12-18T15:34:01.464Z,20.00
2022-12-18T15:35:01.453Z,16.00
2022-12-18T15:36:01.431Z,16.00
2022-12-18T15:37:01.415Z,12.00
2022-12-18T15:38:01.410Z,12.00
2022-12-18T15:39:05.168Z,12.00
2022-12-18T15:40:02.515Z,8.00
2022-12-18T15:41:01.370Z,8.00
2022-12-18T15:42:02.415Z,8.00
2022-12-18T15:43:01.361Z,8.00
2022-12-18T15:44:01.356Z,4.00
2022-12-18T15:45:01.465Z,4.00
2022-12-18T15:46:01.355Z,4.00
2022-12-18T15:47:01.303Z,4.00
2022-12-18T15:48:01.298Z,4.00
2022-12-18T15:49:02.913Z,4.00
2022-12-18T15:50:01.429Z,4.00
2022-12-18T15:51:01.328Z,4.00
2022-12-18T15:52:01.252Z,4.00
2022-12-18T15:53:01.248Z,0.00
2022-12-18T15:54:01.231Z,0.00
2022-12-18T15:55:01.221Z,0.00
2022-12-18T15:56:01.519Z,0.00
2022-12-18T15:57:01.225Z,0.00
2022-12-18T15:58:01.216Z,0.00
2022-12-18T15:59:01.171Z,0.00
2022-12-18T16:00:01.295Z,0.00
2022-12-18T16:01:01.372Z,0.00
2022-12-18T16:02:01.402Z,0.00
2022-12-18T16:03:01.321Z,0.00
2022-12-18T16:04:01.247Z,0.00
2022-12-18T16:05:01.108Z,0.00
2022-12-18T16:06:07.564Z,0.00
2022-12-18T16:07:21.489Z,0.00
2022-12-18T16:08:02.091Z,0.00
2022-12-18T16:09:01.058Z,0.00
2022-12-18T16:10:02.302Z,0.00
2022-12-18T16:11:01.100Z,0.00
2022-12-18T16:12:01.034Z,0.00
2022-12-18T16:13:01.030Z,0.00
2022-12-18T16:14:01.025Z,0.00
2022-12-18T16:15:01.021Z,0.00
2022-12-18T16:16:01.068Z,0.00
2022-12-18T16:17:01.107Z,0.00
2022-12-18T16:18:00.961Z,0.00
2022-12-18T16:19:00.963Z,0.00
2022-12-18T16:20:01.057Z,0.00
2022-12-18T16:21:00.953Z,0.00
2022-12-18T16:22:00.929Z,0.00
2022-12-18T16:23:00.914Z,0.00
2022-12-18T16:24:00.901Z,0.00
2022-12-18T16:25:00.878Z,0.00
2022-12-18T16:26:01.890Z,0.00
2022-12-18T16:27:01.880Z,0.00
2022-12-18T16:28:00.852Z,0.00
2022-12-18T16:29:00.846Z,0.00
2022-12-18T16:30:00.952Z,0.00
2022-12-18T16:31:33.636Z,0.00
2022-12-18T16:32:00.819Z,0.00
2022-12-18T16:33:00.914Z,0.00
2022-12-18T16:34:00.782Z,0.00
2022-12-18T16:35:00.778Z,0.00
2022-12-18T16:36:00.762Z,0.00
2022-12-18T16:37:05.312Z,0.00
2022-12-18T16:38:01.738Z,0.00
2022-12-18T16:39:00.722Z,0.00
2022-12-18T16:40:00.728Z,0.00
2022-12-18T16:41:00.698Z,0.00
2022-12-18T16:42:00.718Z,0.00
2022-12-18T16:43:00.690Z,0.00
2022-12-18T16:44:00.671Z,0.00
2022-12-18T16:45:00.670Z,0.00
2022-12-18T16:46:00.719Z,0.00
2022-12-18T16:47:00.663Z,0.00
2022-12-18T16:48:01.635Z,0.00
2022-12-18T16:49:00.730Z,0.00
2022-12-18T16:50:00.620Z,0.00
2022-12-18T16:51:00.606Z,0.00
2022-12-18T16:52:00.614Z,0.00
2022-12-18T16:53:00.590Z,0.00
2022-12-18T16:54:01.363Z,0.00
2022-12-18T16:55:03.721Z,0.00
2022-12-18T16:56:00.559Z,0.00
2022-12-18T16:57:00.547Z,0.00
2022-12-18T16:58:00.530Z,0.00
2022-12-18T16:59:00.512Z,0.00
2022-12-18T17:00:05.088Z,0.00
2022-12-18T17:01:01.478Z,0.00
2022-12-18T17:02:00.654Z,0.00
2022-12-18T17:03:00.740Z,0.00
2022-12-18T17:04:00.570Z,0.00
2022-12-18T17:05:00.592Z,0.00
2022-12-18T17:06:00.428Z,0.00
2022-12-18T17:07:00.460Z,0.00
2022-12-18T17:08:00.414Z,0.00
2022-12-18T17:09:00.406Z,0.00
2022-12-18T17:10:00.379Z,0.00
2022-12-18T17:11:00.378Z,0.00
2022-12-18T17:12:03.985Z,0.00
2022-12-18T17:13:00.353Z,0.00
2022-12-18T17:14:00.333Z,0.00
2022-12-18T17:15:00.338Z,0.00
2022-12-18T17:16:00.338Z,0.00
2022-12-18T17:17:20.451Z,0.00
2022-12-18T17:18:01.298Z,0.00
2022-12-18T17:19:00.291Z,0.00
2022-12-18T17:20:00.267Z,0.00
2022-12-18T17:21:00.390Z,0.00
2022-12-18T17:22:00.270Z,0.00
2022-12-18T17:23:00.251Z,0.00
2022-12-18T17:24:00.231Z,0.00
2022-12-18T17:25:00.296Z,0.00
2022-12-18T17:26:00.212Z,0.00
2022-12-18T17:27:03.687Z,0.00
2022-12-18T17:28:00.299Z,0.00
2022-12-18T17:29:00.251Z,0.00
2022-12-18T17:30:00.150Z,0.00
2022-12-18T17:31:00.222Z,0.00
2022-12-18T17:32:00.575Z,0.00
2022-12-18T17:33:00.137Z,0.00
2022-12-18T17:34:01.105Z,0.00
2022-12-18T17:35:05.403Z,0.00
2022-12-18T17:36:01.100Z,0.00
2022-12-18T17:37:00.235Z,0.00
2022-12-18T17:38:00.075Z,0.00
2022-12-18T17:39:00.096Z,0.00
2022-12-18T17:40:00.070Z,0.00
2022-12-18T17:41:00.046Z,0.00
2022-12-18T17:42:00.045Z,0.00
2022-12-18T17:43:00.028Z,0.00
2022-12-18T17:44:00.000Z,0.00
2022-12-18T17:44:59.993Z,0.00
2022-12-18T17:49:39.851Z,0.00
2022-12-18T17:50:39.819Z,0.00
2022-12-18T17:51:39.801Z,0.00
2022-12-18T17:52:39.903Z,0.00
2022-12-18T17:53:40.350Z,0.00
2022-12-18T17:54:40.065Z,0.00
2022-12-18T17:55:39.768Z,0.00
2022-12-18T17:56:39.751Z,0.00
2022-12-18T17:57:39.733Z,0.00
2022-12-18T17:58:39.736Z,0.00
2022-12-18T17:59:40.727Z,0.00
2022-12-18T18:00:39.707Z,0.00
2022-12-18T18:01:44.607Z,0.00
2022-12-18T18:02:40.876Z,0.00
2022-12-18T18:03:40.448Z,0.00
2022-12-18T18:04:39.680Z,0.00
2022-12-18T18:05:39.658Z,0.00
2022-12-18T18:06:39.689Z,0.00
2022-12-18T18:07:39.623Z,0.00
2022-12-18T18:08:39.775Z,0.00
2022-12-18T18:09:39.635Z,0.00
2022-12-18T18:10:39.588Z,0.00
2022-12-18T18:11:39.587Z,0.00
2022-12-18T18:12:39.588Z,0.00
2022-12-18T18:13:46.314Z,0.00
2022-12-18T18:14:40.598Z,0.00
2022-12-18T18:15:39.528Z,0.00
2022-12-18T18:16:39.604Z,0.00
2022-12-18T18:17:39.525Z,0.00
2022-12-18T18:18:39.501Z,0.00
2022-12-18T18:19:39.512Z,0.00
2022-12-18T18:20:39.476Z,0.00
2022-12-18T18:21:39.486Z,0.00
2022-12-18T18:22:39.470Z,0.00
2022-12-18T18:23:39.724Z,0.00
2022-12-18T18:24:39.585Z,0.00
2022-12-18T18:25:39.418Z,0.00
2022-12-18T18:26:40.423Z,0.00
2022-12-18T18:27:39.411Z,0.00
2022-12-18T18:28:39.400Z,0.00
2022-12-18T18:29:39.386Z,0.00
2022-12-18T18:30:39.394Z,0.00
2022-12-18T18:31:40.884Z,0.00
2022-12-18T18:32:39.356Z,0.00
2022-12-18T18:33:39.770Z,0.00
2022-12-18T18:34:39.355Z,0.00
2022-12-18T18:35:55.776Z,0.00
2022-12-18T18:36:40.311Z,0.00
2022-12-18T18:37:39.297Z,0.00
2022-12-18T18:38:40.585Z,0.00
2022-12-18T18:39:39.274Z,0.00
2022-12-18T18:40:39.373Z,0.00
2022-12-18T18:41:39.252Z,0.00
2022-12-18T18:42:39.231Z,0.00
2022-12-18T18:43:39.660Z,0.00
2022-12-18T18:44:40.057Z,0.00
2022-12-18T18:45:39.240Z,0.00
2022-12-18T18:46:39.209Z,0.00
2022-12-18T18:47:39.186Z,0.00
2022-12-18T18:48:39.179Z,0.00
2022-12-18T18:49:39.176Z,0.00
2022-12-18T18:50:39.153Z,0.00
2022-12-18T18:51:39.138Z,0.00
2022-12-18T18:52:39.118Z,0.00
2022-12-18T18:53:39.427Z,0.00
2022-12-18T18:54:51.917Z,0.00
2022-12-18T18:55:40.082Z,0.00
2022-12-18T18:57:19.009Z,0.00
2022-12-18T18:57:40.060Z,0.00
2022-12-18T18:58:39.065Z,0.00
2022-12-18T18:59:39.069Z,0.00
2022-12-18T19:00:39.052Z,0.00
2022-12-18T19:01:39.463Z,0.00
2022-12-18T19:02:39.190Z,0.00
2022-12-18T19:03:39.422Z,0.00
2022-12-18T19:04:45.617Z,0.00
2022-12-18T19:05:43.041Z,0.00
2022-12-18T19:06:39.977Z,0.00
2022-12-18T19:07:38.946Z,0.00
2022-12-18T19:08:39.307Z,0.00
2022-12-18T19:09:38.952Z,0.00